createdAt,value
2023-05-21T00:00:15.249Z,14.80
2023-05-21T00:02:43.618Z,14.90
2023-05-21T00:05:14.828Z,14.80
2023-05-21T00:07:43.082Z,14.90
2023-05-21T00:10:11.838Z,14.90
2023-05-21T00:12:41.623Z,14.80
2023-05-21T00:15:10.444Z,14.80
2023-05-21T00:17:38.328Z,14.80
2023-05-21T00:20:09.917Z,14.80
2023-05-21T00:22:37.752Z,14.70
2023-05-21T00:25:06.316Z,14.60
2023-05-21T00:27:34.158Z,14.60
2023-05-21T00:30:03.402Z,14.60
2023-05-21T00:32:31.257Z,14.60
2023-05-21T00:34:59.184Z,14.60
2023-05-21T00:37:29.671Z,14.60
2023-05-21T00:39:58.402Z,14.60
2023-05-21T00:42:27.274Z,14.60
2023-05-21T00:44:55.175Z,14.60
2023-05-21T00:47:24.971Z,14.60
2023-05-21T00:49:53.354Z,14.50
2023-05-21T00:52:21.879Z,14.50
2023-05-21T00:54:51.180Z,14.40
2023-05-21T00:57:21.583Z,14.50
2023-05-21T00:59:51.583Z,14.40
2023-05-21T01:02:19.760Z,14.40
2023-05-21T01:04:49.026Z,14.30
2023-05-21T01:07:18.464Z,14.30
2023-05-21T01:09:46.388Z,14.20
2023-05-21T01:12:15.607Z,14.20
2023-05-21T01:14:44.003Z,14.10
2023-05-21T01:17:12.901Z,14.10
2023-05-21T01:19:41.659Z,14.10
2023-05-21T01:22:14.148Z,14.10
2023-05-21T01:24:47.572Z,14.00
2023-05-21T01:27:15.486Z,14.00
2023-05-21T01:29:43.332Z,14.00
2023-05-21T01:32:17.206Z,13.90
2023-05-21T01:34:53.468Z,13.90
2023-05-21T01:37:28.009Z,13.90
2023-05-21T01:40:01.004Z,13.90
2023-05-21T01:42:30.951Z,13.90
2023-05-21T01:45:02.638Z,13.80
2023-05-21T01:47:32.959Z,13.80
2023-05-21T01:50:01.493Z,13.70
2023-05-21T01:52:29.305Z,13.70
2023-05-21T01:55:00.252Z,13.60
2023-05-21T01:57:28.144Z,13.60
2023-05-21T01:59:57.822Z,13.60
2023-05-21T02:02:25.951Z,13.60
2023-05-21T02:04:53.830Z,13.60
2023-05-21T02:07:22.536Z,13.60
2023-05-21T02:09:50.414Z,13.60
2023-05-21T02:12:19.554Z,13.60
2023-05-21T02:14:50.213Z,13.60
2023-05-21T02:17:18.450Z,13.60
2023-05-21T02:19:46.254Z,13.60
2023-05-21T02:22:14.148Z,13.60
2023-05-21T02:24:42.768Z,13.60
2023-05-21T02:27:13.344Z,13.70
2023-05-21T02:29:42.550Z,13.60
2023-05-21T02:32:11.680Z,13.60
2023-05-21T02:34:42.249Z,13.60
2023-05-21T02:37:10.595Z,13.50
2023-05-21T02:39:38.408Z,13.50
2023-05-21T02:42:06.467Z,13.60
2023-05-21T02:44:34.374Z,13.60
2023-05-21T02:47:03.581Z,13.50
2023-05-21T02:49:31.379Z,13.60
2023-05-21T02:51:59.292Z,13.60
2023-05-21T02:54:27.096Z,13.60
2023-05-21T02:56:54.913Z,13.60
2023-05-21T02:59:22.870Z,13.60
2023-05-21T03:01:50.923Z,13.60
2023-05-21T03:04:21.723Z,13.60
2023-05-21T03:06:51.849Z,13.60
2023-05-21T03:09:20.860Z,13.50
2023-05-21T03:11:48.785Z,13.50
2023-05-21T03:14:17.107Z,13.50
2023-05-21T03:16:45.040Z,13.50
2023-05-21T03:19:14.482Z,13.40
2023-05-21T03:21:44.656Z,13.40
2023-05-21T03:24:13.679Z,13.40
2023-05-21T03:26:41.551Z,13.30
2023-05-21T03:29:09.487Z,13.30
2023-05-21T03:31:37.368Z,13.30
2023-05-21T03:34:05.955Z,13.20
2023-05-21T03:36:33.893Z,13.30
2023-05-21T03:39:04.143Z,13.30
2023-05-21T03:41:32.166Z,13.20
2023-05-21T03:44:00.067Z,13.20
2023-05-21T03:46:28.227Z,13.20
2023-05-21T03:48:58.034Z,13.20
2023-05-21T03:51:25.950Z,13.20
2023-05-21T03:53:53.886Z,13.20
2023-05-21T03:56:23.056Z,13.30
2023-05-21T03:58:51.054Z,13.40
2023-05-21T04:01:19.481Z,13.40
2023-05-21T04:03:47.592Z,13.40
2023-05-21T04:06:15.926Z,13.40
2023-05-21T04:08:44.440Z,13.40
2023-05-21T04:11:12.229Z,13.40
2023-05-21T04:13:41.749Z,13.50
2023-05-21T04:16:09.795Z,13.50
2023-05-21T04:18:37.649Z,13.50
2023-05-21T04:21:06.096Z,13.50
2023-05-21T04:23:36.561Z,13.50
2023-05-21T04:26:04.767Z,13.60
2023-05-21T04:28:33.147Z,13.70
2023-05-21T04:31:02.428Z,13.70
2023-05-21T04:33:30.489Z,13.80
2023-05-21T04:35:58.696Z,13.70
2023-05-21T04:38:26.486Z,13.80
2023-05-21T04:40:55.625Z,13.80
2023-05-21T04:43:25.775Z,13.80
2023-05-21T04:45:54.776Z,14.00
2023-05-21T04:48:24.579Z,14.00
2023-05-21T04:50:53.480Z,14.10
2023-05-21T04:53:21.833Z,14.30
2023-05-21T04:55:49.749Z,14.30
2023-05-21T04:58:19.154Z,14.40
2023-05-21T05:00:47.473Z,14.40
2023-05-21T05:03:15.602Z,14.50
2023-05-21T05:05:44.979Z,14.60
2023-05-21T05:08:15.528Z,14.60
2023-05-21T05:10:43.937Z,14.70
2023-05-21T05:13:12.529Z,14.70
2023-05-21T05:15:43.549Z,14.80
2023-05-21T05:18:11.839Z,14.90
2023-05-21T05:20:39.832Z,14.90
2023-05-21T05:23:09.014Z,14.90
2023-05-21T05:25:37.119Z,15.00
2023-05-21T05:28:05.460Z,15.10
2023-05-21T05:30:33.443Z,15.10
2023-05-21T05:33:01.526Z,15.20
2023-05-21T05:35:29.445Z,15.20
2023-05-21T05:37:57.315Z,15.20
2023-05-21T05:40:26.588Z,15.30
2023-05-21T05:42:54.525Z,15.30
2023-05-21T05:45:22.518Z,15.40
2023-05-21T05:47:50.424Z,15.40
2023-05-21T05:50:18.279Z,15.50
2023-05-21T05:52:46.136Z,15.60
2023-05-21T05:55:14.024Z,15.60
2023-05-21T05:57:45.013Z,15.70
2023-05-21T06:00:14.357Z,15.70
2023-05-21T06:02:42.274Z,15.80
2023-05-21T06:05:11.097Z,15.80
2023-05-21T06:07:39.612Z,15.80
2023-05-21T06:10:08.381Z,15.90
2023-05-21T06:12:36.608Z,15.90
2023-05-21T06:15:06.696Z,16.00
2023-05-21T06:17:34.659Z,16.20
2023-05-21T06:20:02.603Z,16.30
2023-05-21T06:22:30.570Z,16.30
2023-05-21T06:24:58.451Z,16.40
2023-05-21T06:27:26.301Z,16.50
2023-05-21T06:29:54.204Z,16.60
2023-05-21T06:32:23.549Z,16.60
2023-05-21T06:34:51.483Z,16.80
2023-05-21T06:37:21.555Z,16.90
2023-05-21T06:39:49.890Z,17.00
2023-05-21T06:42:17.728Z,17.00
2023-05-21T06:44:45.733Z,17.10
2023-05-21T06:47:13.583Z,17.20
2023-05-21T06:49:42.890Z,17.30
2023-05-21T06:52:11.261Z,17.50
2023-05-21T06:54:39.186Z,17.70
2023-05-21T06:57:07.180Z,17.90
2023-05-21T06:59:35.044Z,18.00
2023-05-21T07:02:04.459Z,18.20
2023-05-21T07:04:35.026Z,18.30
2023-05-21T07:07:04.844Z,18.50
2023-05-21T07:09:32.900Z,18.60
2023-05-21T07:12:01.187Z,18.70
2023-05-21T07:14:28.967Z,18.90
2023-05-21T07:16:56.906Z,18.90
2023-05-21T07:19:25.261Z,19.00
2023-05-21T07:21:53.212Z,19.10
2023-05-21T07:24:22.443Z,19.10
2023-05-21T07:26:50.470Z,19.10
2023-05-21T07:29:18.373Z,19.10
2023-05-21T07:31:46.403Z,19.30
2023-05-21T07:34:14.280Z,19.40
2023-05-21T07:36:42.083Z,19.60
2023-05-21T07:39:09.902Z,19.80
2023-05-21T07:41:39.262Z,19.90
2023-05-21T07:44:07.119Z,19.90
2023-05-21T07:46:35.084Z,20.00
2023-05-21T07:49:03.075Z,20.00
2023-05-21T07:51:31.201Z,20.10
2023-05-21T07:53:59.038Z,20.30
2023-05-21T07:56:27.000Z,20.40
2023-05-21T07:58:56.884Z,20.40
2023-05-21T08:01:25.061Z,20.50
2023-05-21T08:03:53.736Z,20.60
2023-05-21T08:06:22.186Z,20.60
2023-05-21T08:08:49.997Z,20.60
2023-05-21T08:11:17.875Z,20.50
2023-05-21T08:13:45.738Z,20.60
2023-05-21T08:16:15.019Z,20.50
2023-05-21T08:18:42.910Z,20.50
2023-05-21T08:21:10.850Z,20.30
2023-05-21T08:23:39.000Z,20.30
2023-05-21T08:26:07.124Z,20.30
2023-05-21T08:28:35.570Z,20.30
2023-05-21T08:31:03.537Z,20.10
2023-05-21T08:33:32.757Z,20.10
2023-05-21T08:36:00.807Z,20.10
2023-05-21T08:38:30.256Z,20.20
2023-05-21T08:40:59.896Z,20.20
2023-05-21T08:43:29.432Z,20.10
2023-05-21T08:45:59.125Z,20.10
2023-05-21T08:48:27.228Z,20.10
2023-05-21T08:50:56.545Z,20.10
2023-05-21T08:53:28.654Z,20.10
2023-05-21T08:55:58.104Z,20.10
2023-05-21T08:58:26.061Z,20.20
2023-05-21T09:00:55.166Z,20.20
2023-05-21T09:03:24.170Z,20.30
2023-05-21T09:05:52.691Z,20.50
2023-05-21T09:08:28.762Z,20.50
2023-05-21T09:10:56.707Z,20.60
2023-05-21T09:13:27.381Z,20.70
2023-05-21T09:15:55.351Z,20.80
2023-05-21T09:18:23.261Z,21.00
2023-05-21T09:20:51.207Z,21.00
2023-05-21T09:23:20.903Z,21.30
2023-05-21T09:25:51.823Z,21.30
2023-05-21T09:28:20.777Z,21.40
2023-05-21T09:30:50.027Z,21.50
2023-05-21T09:33:26.908Z,21.80
2023-05-21T09:35:55.054Z,21.90
2023-05-21T09:38:26.168Z,21.90
2023-05-21T09:40:56.384Z,21.90
2023-05-21T09:43:24.283Z,22.10
2023-05-21T09:45:54.001Z,22.20
2023-05-21T09:48:35.531Z,22.30
2023-05-21T09:51:14.733Z,22.50
2023-05-21T09:53:50.649Z,22.70
2023-05-21T09:56:22.275Z,22.80
2023-05-21T09:58:52.263Z,23.00
2023-05-21T10:01:21.117Z,23.20
2023-05-21T10:03:54.922Z,23.20
2023-05-21T10:06:23.988Z,23.30
2023-05-21T10:08:55.869Z,23.30
2023-05-21T10:11:26.314Z,23.30
2023-05-21T10:13:58.771Z,23.10
2023-05-21T10:16:26.916Z,23.00
2023-05-21T10:18:57.535Z,22.90
2023-05-21T10:21:27.040Z,23.00
2023-05-21T10:23:58.298Z,23.00
2023-05-21T10:26:26.823Z,23.20
2023-05-21T10:28:58.422Z,23.70
2023-05-21T10:31:26.864Z,24.00
2023-05-21T10:33:57.885Z,24.30
2023-05-21T10:39:03.494Z,24.60
2023-05-21T10:41:40.557Z,24.60
2023-05-21T10:44:17.779Z,24.60
2023-05-21T10:49:28.169Z,24.90
